createdAt,value
2019-03-13T00:01:15.029Z,99193.85
2019-03-13T00:04:19.007Z,99200.13
2019-03-13T00:07:22.931Z,99196.24
2019-03-13T00:10:26.814Z,99216.45
2019-03-13T00:13:30.662Z,99213.22
2019-03-13T00:16:34.579Z,99213.02
2019-03-13T00:19:38.425Z,99211.51
2019-03-13T00:22:42.207Z,99219.19
2019-03-13T00:25:46.205Z,99217.23
2019-03-13T00:28:50.002Z,99220.14
2019-03-13T00:31:53.840Z,99222.26
2019-03-13T00:34:57.721Z,99223.58
2019-03-13T00:38:01.592Z,99227.05
2019-03-13T00:41:05.482Z,99232.77
2019-03-13T00:44:09.307Z,99235.30
2019-03-13T00:47:13.181Z,99235.34
2019-03-13T00:50:28.509Z,99232.77
2019-03-13T00:53:32.372Z,99243.59
2019-03-13T00:56:36.262Z,99255.22
2019-03-13T00:59:40.137Z,99241.63
2019-03-13T01:02:45.464Z,99255.09
2019-03-13T01:05:55.799Z,99259.58
2019-03-13T01:08:59.606Z,99252.09
2019-03-13T01:12:04.265Z,99250.94
2019-03-13T01:15:08.303Z,99251.98
2019-03-13T01:18:12.143Z,99255.00
2019-03-13T01:21:16.072Z,99263.66
2019-03-13T01:24:19.889Z,99266.89
2019-03-13T01:27:23.713Z,99261.06
2019-03-13T01:30:29.167Z,99270.41
2019-03-13T01:33:32.951Z,99272.59
2019-03-13T01:36:36.739Z,99284.07
2019-03-13T01:39:40.533Z,99273.58
2019-03-13T01:42:44.491Z,99299.61
2019-03-13T01:45:48.290Z,99287.96
2019-03-13T01:48:52.108Z,99278.45
2019-03-13T01:51:55.983Z,99272.83
2019-03-13T01:54:59.886Z,99284.82
2019-03-13T01:58:03.777Z,99279.27
2019-03-13T02:01:07.931Z,99283.72
2019-03-13T02:04:11.868Z,99310.17
2019-03-13T02:07:15.776Z,99298.34
2019-03-13T02:10:19.565Z,99282.69
2019-03-13T02:13:23.366Z,99281.31
2019-03-13T02:16:27.201Z,99278.42
2019-03-13T02:19:31.015Z,99283.94
2019-03-13T02:22:34.864Z,99292.86
2019-03-13T02:25:38.691Z,99296.67
2019-03-13T02:28:42.528Z,99294.03
2019-03-13T02:31:46.348Z,99283.42
2019-03-13T02:34:50.225Z,99288.00
2019-03-13T02:37:54.033Z,99287.14
2019-03-13T02:40:57.840Z,99277.98
2019-03-13T02:44:01.676Z,99262.07
2019-03-13T02:47:05.513Z,99272.66
2019-03-13T02:50:10.898Z,99261.84
2019-03-13T02:53:14.706Z,99266.25
2019-03-13T02:56:18.570Z,99273.61
2019-03-13T02:59:22.364Z,99268.07
2019-03-13T03:02:33.993Z,99264.27
2019-03-13T03:05:37.823Z,99255.50
2019-03-13T03:08:41.618Z,99252.94
2019-03-13T03:11:45.466Z,99250.73
2019-03-13T03:15:04.487Z,99253.52
2019-03-13T03:18:08.346Z,99253.41
2019-03-13T03:21:12.126Z,99251.04
2019-03-13T03:24:15.958Z,99245.25
2019-03-13T03:27:19.764Z,99242.23
2019-03-13T03:30:23.910Z,99234.26
2019-03-13T03:33:27.676Z,99228.73
2019-03-13T03:36:31.836Z,99236.45
2019-03-13T03:39:35.634Z,99233.22
2019-03-13T03:42:39.589Z,99226.95
2019-03-13T03:45:43.473Z,99221.02
2019-03-13T03:48:47.318Z,99217.64
2019-03-13T03:51:51.302Z,99221.05
2019-03-13T03:54:55.112Z,99219.36
2019-03-13T03:57:59.063Z,99215.02
2019-03-13T04:01:03.011Z,99216.91
2019-03-13T04:04:06.806Z,99198.81
2019-03-13T04:07:10.623Z,99213.37
2019-03-13T04:10:14.622Z,99204.60
2019-03-13T04:13:18.408Z,99186.37
2019-03-13T04:16:22.298Z,99187.78
2019-03-13T04:19:26.097Z,99188.52
2019-03-13T04:22:29.920Z,99174.66
2019-03-13T04:25:37.855Z,99185.10
2019-03-13T04:28:41.769Z,99185.69
2019-03-13T04:31:45.565Z,99191.71
2019-03-13T04:34:49.380Z,99180.53
2019-03-13T04:37:53.232Z,99178.22
2019-03-13T04:40:57.033Z,99180.32
2019-03-13T04:44:00.878Z,99173.05
2019-03-13T04:47:04.765Z,99168.19
2019-03-13T04:50:08.654Z,99174.58
2019-03-13T04:53:12.454Z,99182.25
2019-03-13T04:56:16.255Z,99164.56
2019-03-13T04:59:20.055Z,99164.05
2019-03-13T05:02:23.881Z,99164.46
2019-03-13T05:05:47.884Z,99170.41
2019-03-13T05:09:18.432Z,99159.59
2019-03-13T05:12:22.303Z,99152.41
2019-03-13T05:15:26.121Z,99156.31
2019-03-13T05:18:29.942Z,99149.84
2019-03-13T05:21:33.798Z,99160.91
2019-03-13T05:24:37.596Z,99146.52
2019-03-13T05:27:41.502Z,99155.06
2019-03-13T05:30:45.417Z,99159.31
2019-03-13T05:33:49.445Z,99178.73
2019-03-13T05:36:53.245Z,99153.33
2019-03-13T05:39:57.089Z,99157.06
2019-03-13T05:43:00.880Z,99146.95
2019-03-13T05:46:04.752Z,99149.06
2019-03-13T05:49:08.581Z,99145.70
2019-03-13T05:52:12.395Z,99144.62
2019-03-13T05:55:16.342Z,99141.80
2019-03-13T05:58:20.157Z,99136.39
2019-03-13T06:01:23.980Z,99140.45
2019-03-13T06:04:27.790Z,99145.30
2019-03-13T06:07:31.609Z,99159.77
2019-03-13T06:10:35.560Z,99147.25
2019-03-13T06:13:39.357Z,99147.75
2019-03-13T06:16:43.157Z,99159.94
2019-03-13T06:19:46.991Z,99141.55
2019-03-13T06:22:50.808Z,99155.57
2019-03-13T06:25:54.624Z,99146.95
2019-03-13T06:28:58.446Z,99142.20
2019-03-13T06:32:02.318Z,99145.53
2019-03-13T06:35:06.325Z,99139.87
2019-03-13T06:38:10.131Z,99134.42
2019-03-13T06:41:14.042Z,99130.98
2019-03-13T06:44:17.845Z,99139.44
2019-03-13T06:47:24.855Z,99128.44
2019-03-13T06:50:27.219Z,99125.52
2019-03-13T06:53:31.068Z,99132.78
2019-03-13T06:56:34.926Z,99130.52
2019-03-13T06:59:56.401Z,99116.93
2019-03-13T07:03:05.854Z,99126.31
2019-03-13T07:06:37.688Z,99122.99
2019-03-13T07:09:48.638Z,99115.54
2019-03-13T07:13:04.737Z,99104.91
2019-03-13T07:16:17.762Z,99112.14
2019-03-13T07:19:35.594Z,99103.66
2019-03-13T07:22:57.099Z,99103.84
2019-03-13T07:26:18.799Z,99103.04
2019-03-13T07:29:59.997Z,99101.90
2019-03-13T07:33:25.688Z,99101.22
2019-03-13T07:36:47.408Z,99092.91
2019-03-13T07:40:10.314Z,99089.55
2019-03-13T07:43:36.051Z,99081.23
2019-03-13T07:47:17.140Z,99056.98
2019-03-13T07:50:36.629Z,99078.44
2019-03-13T07:53:50.152Z,99071.46
2019-03-13T07:57:27.844Z,99072.30
2019-03-13T08:00:40.769Z,99067.95
2019-03-13T08:04:05.322Z,99075.39
2019-03-13T08:07:17.564Z,99075.12
2019-03-13T08:10:39.073Z,99082.30
2019-03-13T08:14:11.009Z,99075.80
2019-03-13T08:17:26.032Z,99075.28
2019-03-13T08:20:48.168Z,99058.06
2019-03-13T08:24:08.989Z,99056.91
2019-03-13T08:27:30.899Z,99047.02
2019-03-13T08:30:52.554Z,99063.49
2019-03-13T08:34:27.385Z,99056.98
2019-03-13T08:37:37.646Z,99047.65
2019-03-13T08:40:47.678Z,99051.36
2019-03-13T08:44:19.640Z,99041.13
2019-03-13T08:47:37.161Z,99063.56
2019-03-13T08:50:58.713Z,99030.20
2019-03-13T08:54:13.060Z,99031.46
2019-03-13T08:57:31.833Z,99034.97
2019-03-13T09:00:45.048Z,99031.34
2019-03-13T09:04:16.966Z,99045.42
2019-03-13T09:07:29.973Z,99036.77
2019-03-13T09:11:01.694Z,99022.70
2019-03-13T09:14:16.264Z,99036.44
2019-03-13T09:17:36.962Z,99040.03
2019-03-13T09:20:55.551Z,99036.64
2019-03-13T09:24:23.293Z,99022.01
2019-03-13T09:27:37.260Z,99028.95
2019-03-13T09:30:54.256Z,99028.46
2019-03-13T09:34:29.017Z,99020.30
2019-03-13T09:37:47.139Z,99014.38
2019-03-13T09:41:14.295Z,99017.89
2019-03-13T09:44:35.615Z,99017.10
2019-03-13T09:47:46.788Z,99003.30
2019-03-13T09:50:59.928Z,98999.45
2019-03-13T09:54:22.764Z,98991.41
2019-03-13T09:57:44.436Z,98998.94
2019-03-13T10:00:54.889Z,99004.43
2019-03-13T10:04:07.463Z,98996.45
2019-03-13T10:07:36.750Z,98993.82
2019-03-13T10:10:50.323Z,98986.13
2019-03-13T10:14:00.775Z,98983.48
2019-03-13T10:17:19.966Z,98982.57
2019-03-13T10:20:50.814Z,98979.04
2019-03-13T10:24:25.212Z,98981.77
2019-03-13T10:27:35.880Z,98957.16
2019-03-13T10:30:50.450Z,98970.22
2019-03-13T10:34:10.861Z,98953.16
2019-03-13T10:37:36.071Z,98960.70
2019-03-13T10:41:01.374Z,98959.09
2019-03-13T10:44:30.706Z,98953.92
2019-03-13T10:47:44.312Z,98952.81
2019-03-13T10:51:05.975Z,98949.68
2019-03-13T10:54:37.001Z,98937.12
2019-03-13T10:57:58.796Z,98962.75
2019-03-13T11:01:20.493Z,98970.77
2019-03-13T11:04:49.262Z,98953.23
2019-03-13T11:08:06.694Z,98959.36
2019-03-13T11:11:35.467Z,98944.73
2019-03-13T11:15:00.973Z,98930.02
2019-03-13T11:18:13.394Z,98947.67
2019-03-13T11:21:22.100Z,98934.81
2019-03-13T11:24:39.435Z,98937.02
2019-03-13T11:27:51.660Z,98925.01
2019-03-13T11:31:07.215Z,98926.28
2019-03-13T11:34:33.040Z,98930.09
2019-03-13T11:37:49.232Z,98947.05
2019-03-13T11:41:05.991Z,98921.00
2019-03-13T11:44:34.711Z,98945.70
2019-03-13T11:47:56.431Z,98953.60
2019-03-13T11:51:25.380Z,98954.30
2019-03-13T11:54:41.461Z,98945.88
2019-03-13T11:57:55.530Z,98940.17
2019-03-13T12:01:17.682Z,98926.72
2019-03-13T12:04:35.466Z,98924.61
2019-03-13T12:07:48.309Z,98917.70
2019-03-13T12:11:05.863Z,98922.15
2019-03-13T12:14:31.708Z,98916.86
2019-03-13T12:17:54.679Z,98911.06
2019-03-13T12:21:11.115Z,98911.80
2019-03-13T12:24:31.937Z,98935.18
2019-03-13T12:27:48.337Z,98920.30
2019-03-13T12:31:13.877Z,98928.77
2019-03-13T12:34:28.640Z,98922.71
2019-03-13T12:37:50.311Z,98900.67
2019-03-13T12:41:22.492Z,98898.81
2019-03-13T12:44:44.115Z,98875.97
2019-03-13T12:51:35.429Z,98890.72
2019-03-13T12:54:49.120Z,98887.39
2019-03-13T12:58:09.334Z,98884.09
2019-03-13T13:01:21.938Z,98892.86
2019-03-13T13:04:35.910Z,98897.04
2019-03-13T13:07:48.617Z,98908.41
2019-03-13T13:11:09.291Z,98924.48
2019-03-13T13:14:31.468Z,98908.85
2019-03-13T13:17:57.636Z,98921.45
2019-03-13T13:21:01.511Z,98925.23
2019-03-13T13:24:05.693Z,98920.41
2019-03-13T13:27:09.649Z,98915.52
2019-03-13T13:30:14.804Z,98909.02
2019-03-13T13:33:18.643Z,98918.48
2019-03-13T13:36:22.524Z,98916.20
2019-03-13T13:39:26.421Z,98910.08
2019-03-13T13:42:30.200Z,98910.80
2019-03-13T13:45:45.857Z,98921.95
2019-03-13T13:48:49.721Z,98922.12
2019-03-13T13:51:53.604Z,98916.73
2019-03-13T13:54:57.424Z,98917.63
2019-03-13T13:58:01.240Z,98895.67
2019-03-13T14:01:05.186Z,98896.26
2019-03-13T14:04:09.006Z,98891.03
2019-03-13T14:07:12.809Z,98892.26
2019-03-13T14:10:16.764Z,98897.52
2019-03-13T14:13:20.582Z,98892.06
2019-03-13T14:16:24.387Z,98885.97
2019-03-13T14:19:28.263Z,98886.23
2019-03-13T14:22:32.085Z,98886.21
2019-03-13T14:25:35.949Z,98876.48
2019-03-13T14:28:39.818Z,98870.05
2019-03-13T14:31:43.633Z,98860.03
2019-03-13T14:34:47.456Z,98873.17
2019-03-13T14:37:51.400Z,98865.64
2019-03-13T14:40:55.375Z,98874.88
2019-03-13T14:43:59.392Z,98882.93
2019-03-13T14:47:03.201Z,98883.91
2019-03-13T14:50:08.481Z,98892.82
2019-03-13T14:53:12.407Z,98884.11
2019-03-13T14:56:16.338Z,98881.47
2019-03-13T14:59:20.241Z,98878.46
2019-03-13T15:02:24.013Z,98878.19
2019-03-13T15:05:27.907Z,98880.29
2019-03-13T15:08:31.694Z,98877.14
2019-03-13T15:11:35.497Z,98879.39
2019-03-13T15:14:39.270Z,98886.55
2019-03-13T15:17:43.153Z,98876.62
2019-03-13T15:20:47.121Z,98873.84
2019-03-13T15:23:50.904Z,98880.05
2019-03-13T15:26:54.737Z,98868.23
2019-03-13T15:29:58.546Z,98859.87
2019-03-13T15:33:02.446Z,98865.25
2019-03-13T15:36:06.285Z,98853.78
2019-03-13T15:39:10.232Z,98855.78
2019-03-13T15:42:14.059Z,98850.02
2019-03-13T15:45:19.062Z,98872.63
2019-03-13T15:48:22.849Z,98869.70
2019-03-13T15:51:26.637Z,98863.41
2019-03-13T15:54:30.503Z,98848.41
2019-03-13T15:57:34.384Z,98852.46
2019-03-13T16:00:38.265Z,98851.05
2019-03-13T16:03:42.169Z,98850.86
2019-03-13T16:06:45.948Z,98851.00
2019-03-13T16:09:49.852Z,98850.36
2019-03-13T16:12:55.576Z,98867.59
2019-03-13T16:15:59.558Z,98859.14
2019-03-13T16:19:03.384Z,98850.64
2019-03-13T16:22:08.167Z,98855.66
2019-03-13T16:25:12.685Z,98852.77
2019-03-13T16:28:16.594Z,98842.63
2019-03-13T16:31:20.404Z,98832.45
2019-03-13T16:34:24.200Z,98844.58
2019-03-13T16:37:28.010Z,98840.36
2019-03-13T16:40:32.128Z,98837.41
2019-03-13T16:43:35.970Z,98854.06
2019-03-13T16:46:39.811Z,98857.16
2019-03-13T16:49:43.664Z,98856.46
2019-03-13T16:52:47.472Z,98834.84
2019-03-13T16:55:51.351Z,98830.36
2019-03-13T16:59:02.822Z,98834.44
2019-03-13T17:02:06.891Z,98828.85
2019-03-13T17:05:11.644Z,98843.68
2019-03-13T17:08:15.450Z,98827.13
2019-03-13T17:11:19.287Z,98831.95
2019-03-13T17:14:23.168Z,98841.75
2019-03-13T17:17:27.045Z,98839.32
2019-03-13T17:20:30.898Z,98847.36
2019-03-13T17:23:34.783Z,98851.01
2019-03-13T17:26:38.594Z,98844.58
2019-03-13T17:29:42.402Z,98846.61
2019-03-13T17:32:46.305Z,98848.03
2019-03-13T17:35:50.210Z,98848.42
2019-03-13T17:38:54.057Z,98851.22
2019-03-13T17:41:57.848Z,98863.81
2019-03-13T17:45:01.733Z,98860.05
2019-03-13T17:48:07.177Z,98864.48
2019-03-13T17:51:10.983Z,98874.03
2019-03-13T17:54:14.794Z,98881.66
2019-03-13T17:57:18.682Z,98871.60
2019-03-13T18:00:29.678Z,98885.91
2019-03-13T18:03:33.473Z,98878.31
2019-03-13T18:06:37.446Z,98884.05
2019-03-13T18:09:41.241Z,98887.09
2019-03-13T18:12:45.150Z,98894.42
2019-03-13T18:15:49.064Z,98893.59
2019-03-13T18:18:52.844Z,98903.35
2019-03-13T18:21:56.690Z,98905.81
2019-03-13T18:25:00.534Z,98912.05
2019-03-13T18:28:04.563Z,98914.98
2019-03-13T18:31:08.464Z,98909.31
2019-03-13T18:34:12.276Z,98926.15
2019-03-13T18:37:16.161Z,98931.55
2019-03-13T18:40:20.134Z,98934.75
2019-03-13T18:43:23.958Z,98924.08
2019-03-13T18:46:27.747Z,98935.27
2019-03-13T18:49:31.574Z,98931.25
2019-03-13T18:52:35.376Z,98943.28
2019-03-13T18:55:39.332Z,98948.05
2019-03-13T18:58:43.302Z,98947.50
2019-03-13T19:01:47.176Z,98954.75
2019-03-13T19:04:51.070Z,98960.09
2019-03-13T19:07:54.949Z,98966.83
2019-03-13T19:10:58.794Z,98962.16
2019-03-13T19:14:02.598Z,98974.16
2019-03-13T19:17:06.563Z,98967.24
2019-03-13T19:20:12.007Z,98984.52
2019-03-13T19:23:16.088Z,98995.90
2019-03-13T19:26:20.020Z,99003.56
2019-03-13T19:29:23.799Z,99005.29
2019-03-13T19:32:27.611Z,99021.64
2019-03-13T19:35:31.568Z,99023.48
2019-03-13T19:38:35.374Z,99019.97
2019-03-13T19:41:39.252Z,99026.25
2019-03-13T19:44:43.088Z,99041.20
2019-03-13T19:47:47.037Z,99039.62
2019-03-13T19:50:50.946Z,99049.06
2019-03-13T19:53:54.725Z,99056.23
2019-03-13T19:56:58.611Z,99058.12
2019-03-13T20:00:02.414Z,99062.73
2019-03-13T20:03:07.150Z,99071.03
2019-03-13T20:06:11.064Z,99086.23
2019-03-13T20:09:15.013Z,99074.16
2019-03-13T20:12:18.802Z,99080.58
2019-03-13T20:15:23.351Z,99094.63
2019-03-13T20:18:27.342Z,99103.08
2019-03-13T20:21:31.503Z,99112.03
2019-03-13T20:24:35.313Z,99117.05
2019-03-13T20:27:39.387Z,99126.02
2019-03-13T20:30:43.360Z,99133.49
2019-03-13T20:33:47.164Z,99146.23
2019-03-13T20:36:51.087Z,99155.59
2019-03-13T20:39:54.879Z,99162.67
2019-03-13T20:43:02.023Z,99163.27
2019-03-13T20:46:04.833Z,99175.31
2019-03-13T20:49:08.717Z,99196.98
2019-03-13T20:52:12.539Z,99200.48
2019-03-13T20:55:16.677Z,99199.38
2019-03-13T20:58:20.606Z,99210.04
2019-03-13T21:01:24.472Z,99216.02
2019-03-13T21:04:28.256Z,99230.44
2019-03-13T21:07:32.062Z,99259.41
2019-03-13T21:10:35.953Z,99251.58
2019-03-13T21:13:39.745Z,99263.68
2019-03-13T21:16:43.600Z,99263.92
2019-03-13T21:19:47.413Z,99271.74
2019-03-13T21:22:51.296Z,99288.80
2019-03-13T21:25:55.167Z,99296.11
2019-03-13T21:28:58.967Z,99300.19
2019-03-13T21:32:02.802Z,99310.80
2019-03-13T21:35:06.881Z,99312.67
2019-03-13T21:38:13.083Z,99314.80
2019-03-13T21:41:16.297Z,99323.39
2019-03-13T21:44:20.104Z,99328.11
2019-03-13T21:47:23.980Z,99337.09
2019-03-13T21:50:27.962Z,99343.16
2019-03-13T21:53:31.803Z,99350.20
2019-03-13T21:56:35.632Z,99356.31
2019-03-13T21:59:39.455Z,99375.95
2019-03-13T22:02:43.289Z,99374.89
2019-03-13T22:05:47.193Z,99387.84
2019-03-13T22:08:50.989Z,99395.87
2019-03-13T22:11:54.807Z,99407.22
2019-03-13T22:14:58.681Z,99409.16
2019-03-13T22:18:02.503Z,99425.20
2019-03-13T22:21:06.290Z,99423.81
2019-03-13T22:24:10.070Z,99445.67
2019-03-13T22:27:14.935Z,99441.72
2019-03-13T22:30:20.451Z,99447.40
2019-03-13T22:33:24.260Z,99453.70
2019-03-13T22:36:28.148Z,99452.56
2019-03-13T22:39:31.933Z,99460.62
2019-03-13T22:42:35.716Z,99479.80
2019-03-13T22:45:39.548Z,99478.74
2019-03-13T22:48:43.371Z,99491.41
2019-03-13T22:51:47.233Z,99495.37
2019-03-13T22:54:51.035Z,99512.51
2019-03-13T22:57:54.873Z,99499.02
2019-03-13T23:01:06.659Z,99504.59
2019-03-13T23:04:10.648Z,99508.44
2019-03-13T23:07:14.543Z,99523.97
2019-03-13T23:10:30.232Z,99519.78
2019-03-13T23:13:35.555Z,99521.61
2019-03-13T23:16:39.422Z,99522.23
2019-03-13T23:19:43.443Z,99542.41
2019-03-13T23:22:47.222Z,99545.48
2019-03-13T23:25:51.127Z,99540.05
2019-03-13T23:28:55.060Z,99550.59
2019-03-13T23:31:58.884Z,99562.62
2019-03-13T23:35:04.363Z,99560.28
2019-03-13T23:38:08.711Z,99578.06
2019-03-13T23:41:12.668Z,99581.81
2019-03-13T23:44:16.547Z,99605.53
2019-03-13T23:47:20.357Z,99608.91
2019-03-13T23:50:24.157Z,99618.13
2019-03-13T23:53:27.956Z,99621.64
2019-03-13T23:56:31.743Z,99625.53
2019-03-13T23:59:35.577Z,99639.89
